createdAt,value
2022-11-06T00:01:19.866Z,9.04
2022-11-06T00:06:26.296Z,7.77
2022-11-06T00:11:32.434Z,10.36
2022-11-06T00:16:38.636Z,8.18
2022-11-06T00:21:44.929Z,7.36
2022-11-06T00:26:54.347Z,9.16
2022-11-06T00:31:56.841Z,9.53
2022-11-06T00:37:03.358Z,8.96
2022-11-06T00:42:09.680Z,8.16
2022-11-06T00:47:16.126Z,9.08
2022-11-06T00:52:22.635Z,8.12
2022-11-06T00:57:28.844Z,9.74
2022-11-06T01:02:35.164Z,9.50
2022-11-06T01:07:41.213Z,9.84
2022-11-06T01:12:47.337Z,10.79
2022-11-06T01:17:53.632Z,9.49
2022-11-06T01:22:59.792Z,9.33
2022-11-06T01:28:05.936Z,9.57
2022-11-06T01:33:12.067Z,9.05
2022-11-06T01:38:18.261Z,10.72
2022-11-06T01:43:24.427Z,11.26
2022-11-06T01:48:30.590Z,9.62
2022-11-06T01:53:36.693Z,6.83
2022-11-06T01:58:43.756Z,8.45
2022-11-06T02:03:49.836Z,8.29
2022-11-06T02:08:55.979Z,7.67
2022-11-06T02:14:02.137Z,9.11
2022-11-06T02:19:08.347Z,6.99
2022-11-06T02:24:14.496Z,9.02
2022-11-06T02:29:20.630Z,8.88
2022-11-06T02:34:26.761Z,10.54
2022-11-06T02:39:33.291Z,7.93
2022-11-06T02:44:39.792Z,10.61
2022-11-06T02:49:46.263Z,7.87
2022-11-06T02:54:52.332Z,10.91
2022-11-06T02:59:58.455Z,8.97
2022-11-06T03:05:04.881Z,7.68
2022-11-06T03:10:11.162Z,7.34
2022-11-06T03:15:17.220Z,7.97
2022-11-06T03:20:23.460Z,6.95
2022-11-06T03:25:29.583Z,8.62
2022-11-06T03:30:36.092Z,10.02
2022-11-06T03:35:42.497Z,6.09
2022-11-06T03:40:48.846Z,13.03
2022-11-06T03:45:54.961Z,7.51
2022-11-06T03:51:01.200Z,7.24
2022-11-06T03:56:07.319Z,5.68
2022-11-06T04:01:13.496Z,7.76
2022-11-06T04:06:19.549Z,6.76
2022-11-06T04:11:25.771Z,9.76
2022-11-06T04:16:32.927Z,8.62
2022-11-06T04:21:39.452Z,10.21
2022-11-06T04:26:45.491Z,9.41
2022-11-06T04:31:51.676Z,7.65
2022-11-06T04:36:57.823Z,6.96
2022-11-06T04:42:04.326Z,9.80
2022-11-06T04:47:11.313Z,7.43
2022-11-06T04:52:17.505Z,8.18
2022-11-06T04:57:23.613Z,6.81
2022-11-06T05:02:30.294Z,9.66
2022-11-06T05:07:36.695Z,8.47
2022-11-06T05:12:42.868Z,8.65
2022-11-06T05:17:48.942Z,6.63
2022-11-06T05:22:55.161Z,11.14
2022-11-06T05:28:01.318Z,8.53
2022-11-06T05:33:07.576Z,10.74
2022-11-06T05:38:14.581Z,8.52
2022-11-06T05:43:19.923Z,7.61
2022-11-06T05:48:26.073Z,7.05
2022-11-06T05:53:32.309Z,8.78
2022-11-06T05:58:38.457Z,7.44
2022-11-06T06:03:44.625Z,6.73
2022-11-06T06:08:51.088Z,6.00
2022-11-06T06:13:57.406Z,8.30
2022-11-06T06:19:03.440Z,8.38
2022-11-06T06:24:09.575Z,7.38
2022-11-06T06:29:16.047Z,8.95
2022-11-06T06:34:22.213Z,7.64
2022-11-06T06:39:28.377Z,8.09
2022-11-06T06:44:34.525Z,12.18
2022-11-06T06:49:40.551Z,8.43
2022-11-06T06:54:46.757Z,7.09
2022-11-06T06:59:52.798Z,8.56
2022-11-06T07:04:59.275Z,6.28
2022-11-06T07:10:05.328Z,5.81
2022-11-06T07:15:11.901Z,7.66
2022-11-06T07:20:17.943Z,8.24
2022-11-06T07:25:24.144Z,8.83
2022-11-06T07:30:30.190Z,10.47
2022-11-06T07:35:36.509Z,7.28
2022-11-06T07:40:42.653Z,8.25
2022-11-06T07:45:48.854Z,8.16
2022-11-06T07:50:54.907Z,8.31
2022-11-06T07:56:01.064Z,9.39
2022-11-06T08:01:07.170Z,5.44
2022-11-06T08:06:13.294Z,10.22
2022-11-06T08:11:19.358Z,6.79
2022-11-06T08:16:25.548Z,6.44
2022-11-06T08:21:31.933Z,7.13
2022-11-06T08:26:38.115Z,6.19
2022-11-06T08:31:44.574Z,9.63
2022-11-06T08:36:50.809Z,5.09
2022-11-06T08:41:56.844Z,6.95
2022-11-06T08:47:03.140Z,7.16
2022-11-06T08:52:09.283Z,7.10
2022-11-06T08:57:15.497Z,7.31
2022-11-06T09:02:21.709Z,6.55
2022-11-06T09:07:27.812Z,6.63
2022-11-06T09:12:33.946Z,7.29
2022-11-06T09:17:40.145Z,5.38
2022-11-06T09:22:46.982Z,6.57
2022-11-06T09:27:58.514Z,6.05
2022-11-06T09:32:58.784Z,5.70
2022-11-06T09:38:05.086Z,6.40
2022-11-06T09:43:12.051Z,6.84
2022-11-06T09:48:17.507Z,6.87
2022-11-06T09:53:23.676Z,7.83
2022-11-06T09:58:29.886Z,6.43
2022-11-06T10:03:36.064Z,3.94
2022-11-06T10:08:42.434Z,5.53
2022-11-06T10:13:48.533Z,7.00
2022-11-06T10:18:54.913Z,7.82
2022-11-06T10:24:01.124Z,6.16
2022-11-06T10:29:07.324Z,5.51
2022-11-06T10:34:13.393Z,4.20
2022-11-06T10:39:19.574Z,5.53
2022-11-06T10:44:25.711Z,4.42
2022-11-06T10:49:31.955Z,6.67
2022-11-06T10:54:37.988Z,5.72
2022-11-06T10:59:44.128Z,6.80
2022-11-06T11:04:53.999Z,4.73
2022-11-06T11:09:55.937Z,6.92
2022-11-06T11:15:02.369Z,7.02
2022-11-06T11:20:08.491Z,5.44
2022-11-06T11:25:14.532Z,5.06
2022-11-06T11:30:20.972Z,5.04
2022-11-06T11:35:27.092Z,6.45
2022-11-06T11:40:33.306Z,4.94
2022-11-06T11:45:39.461Z,5.18
2022-11-06T11:50:46.396Z,4.28
2022-11-06T11:55:52.554Z,4.63
2022-11-06T12:00:58.677Z,4.42
2022-11-06T12:06:04.800Z,4.35
2022-11-06T12:11:11.455Z,3.95
2022-11-06T12:16:17.504Z,3.00
2022-11-06T12:21:24.027Z,6.31
2022-11-06T12:26:30.470Z,4.12
2022-11-06T12:31:37.113Z,7.41
2022-11-06T12:36:43.242Z,4.44
2022-11-06T12:41:49.480Z,4.14
2022-11-06T12:46:55.628Z,4.53
2022-11-06T12:52:01.925Z,5.16
2022-11-06T12:57:07.969Z,4.90
2022-11-06T13:02:14.507Z,4.14
2022-11-06T13:07:20.462Z,3.94
2022-11-06T13:12:26.659Z,5.08
2022-11-06T13:17:32.763Z,3.46
2022-11-06T13:22:38.982Z,3.97
2022-11-06T13:27:45.136Z,3.85
2022-11-06T13:32:53.928Z,6.99
2022-11-06T13:37:57.149Z,3.52
2022-11-06T13:43:03.486Z,5.91
2022-11-06T13:48:09.737Z,4.06
2022-11-06T13:53:15.885Z,3.85
2022-11-06T13:58:21.978Z,4.53
2022-11-06T14:03:28.156Z,3.75
2022-11-06T14:08:34.199Z,3.53
2022-11-06T14:13:40.407Z,3.49
2022-11-06T14:18:46.561Z,4.18
2022-11-06T14:23:53.473Z,4.04
2022-11-06T14:28:59.643Z,4.99
2022-11-06T14:34:05.874Z,3.68
2022-11-06T14:39:12.106Z,3.74
2022-11-06T14:44:18.307Z,3.98
2022-11-06T14:49:24.519Z,3.10
2022-11-06T14:54:30.783Z,4.16
2022-11-06T14:59:36.921Z,4.99
2022-11-06T15:04:43.235Z,3.62
2022-11-06T15:09:49.294Z,4.12
2022-11-06T15:14:55.507Z,3.51
2022-11-06T15:20:01.571Z,4.35
2022-11-06T15:25:07.750Z,4.58
2022-11-06T15:30:13.810Z,4.65
2022-11-06T15:35:20.333Z,4.16
2022-11-06T15:40:26.457Z,3.40
2022-11-06T15:45:32.683Z,6.67
2022-11-06T15:50:38.730Z,3.62
2022-11-06T15:55:44.950Z,4.27
2022-11-06T16:00:51.106Z,4.39
2022-11-06T16:05:57.321Z,5.66
2022-11-06T16:11:03.476Z,5.01
2022-11-06T16:16:09.664Z,5.33
2022-11-06T16:21:16.111Z,5.40
2022-11-06T16:26:22.392Z,6.83
2022-11-06T16:31:28.814Z,5.37
2022-11-06T16:36:34.981Z,6.08
2022-11-06T16:41:41.096Z,7.56
2022-11-06T16:46:47.305Z,5.17
2022-11-06T16:51:53.419Z,6.37
2022-11-06T16:56:59.556Z,6.47
2022-11-06T17:02:05.689Z,6.30
2022-11-06T17:07:12.282Z,6.06
2022-11-06T17:12:19.640Z,5.35
2022-11-06T17:17:25.828Z,4.43
2022-11-06T17:22:31.927Z,5.60
2022-11-06T17:27:38.180Z,6.02
2022-11-06T17:32:44.391Z,5.45
2022-11-06T17:37:50.637Z,5.83
2022-11-06T17:42:57.085Z,4.63
2022-11-06T17:48:03.995Z,5.31
2022-11-06T17:53:10.051Z,6.83
2022-11-06T17:58:16.814Z,5.73
2022-11-06T18:03:22.214Z,5.42
2022-11-06T18:08:28.211Z,6.89
2022-11-06T18:13:34.393Z,6.81
2022-11-06T18:18:40.602Z,7.05
2022-11-06T18:23:46.767Z,6.87
2022-11-06T18:28:54.006Z,6.18
2022-11-06T18:34:00.170Z,5.53
2022-11-06T18:39:06.471Z,5.37
2022-11-06T18:44:12.614Z,5.72
2022-11-06T18:49:21.235Z,5.49
2022-11-06T18:54:27.388Z,7.11
2022-11-06T18:59:33.713Z,7.02
2022-11-06T19:04:39.911Z,5.42
2022-11-06T19:09:46.119Z,7.59
2022-11-06T19:14:52.220Z,5.60
2022-11-06T19:19:58.481Z,7.18
2022-11-06T19:25:04.637Z,5.37
2022-11-06T19:30:10.857Z,4.85
2022-11-06T19:35:16.983Z,5.15
2022-11-06T19:40:23.328Z,4.57
2022-11-06T19:45:29.848Z,4.26
2022-11-06T19:50:58.670Z,3.56
2022-11-06T19:55:42.167Z,3.57
2022-11-06T20:00:48.321Z,4.03
2022-11-06T20:05:54.804Z,3.15
2022-11-06T20:11:01.917Z,2.73
2022-11-06T20:16:08.043Z,4.24
2022-11-06T20:21:14.618Z,3.39
2022-11-06T20:26:20.778Z,3.60
2022-11-06T20:31:26.989Z,3.16
2022-11-06T20:36:33.123Z,3.56
2022-11-06T20:41:39.398Z,4.00
2022-11-06T20:46:47.807Z,2.88
2022-11-06T20:52:12.790Z,3.26
2022-11-06T20:56:57.435Z,4.77
2022-11-06T21:02:03.718Z,3.51
2022-11-06T21:07:10.037Z,4.18
2022-11-06T21:12:16.282Z,3.65
2022-11-06T21:17:22.429Z,3.68
2022-11-06T21:22:28.577Z,4.02
2022-11-06T21:27:34.695Z,3.66
2022-11-06T21:32:41.250Z,5.37
2022-11-06T21:37:47.390Z,5.58
2022-11-06T21:42:53.634Z,3.51
2022-11-06T21:47:59.690Z,4.75
2022-11-06T21:53:05.848Z,4.28
2022-11-06T21:58:15.187Z,3.76
2022-11-06T22:03:21.288Z,3.89
2022-11-06T22:08:30.503Z,4.21
2022-11-06T22:13:54.491Z,4.49
2022-11-06T22:19:00.705Z,3.93
2022-11-06T22:24:07.010Z,4.75
2022-11-06T22:29:13.187Z,5.01
2022-11-06T22:34:19.361Z,4.38
2022-11-06T22:39:25.533Z,4.97
2022-11-06T22:44:31.935Z,6.06
2022-11-06T22:49:38.222Z,7.76
2022-11-06T22:54:44.811Z,6.22
2022-11-06T22:59:51.199Z,6.59
2022-11-06T23:04:57.465Z,5.17
2022-11-06T23:10:03.603Z,6.26
2022-11-06T23:15:09.904Z,7.31
2022-11-06T23:20:16.305Z,5.48
2022-11-06T23:25:22.531Z,7.76
2022-11-06T23:30:28.663Z,7.21
2022-11-06T23:35:34.860Z,6.98
2022-11-06T23:40:40.942Z,6.13
2022-11-06T23:45:47.166Z,6.95
2022-11-06T23:50:53.242Z,6.82
2022-11-06T23:55:59.582Z,7.20
